Data for 04/25/2006

Time Sea-Level Adjusted Pressure Absolute Pressure Temperature Relative Humidity Dew Point   
(mb) (inHg) (mb) (inHg) (C) (F) (%) (C) (F)
00:05 1021 30.15 850 25.1 0.8 33.5 61 -5.9 21.4
00:10 1021 30.15 850 25.1 0.8 33.5 61 -5.9 21.3
00:15 1021 30.15 850 25.1 0.8 33.4 61 -6 21.2
00:20 1021 30.15 850 25.1 0.8 33.4 61 -6 21.2
00:25 1021 30.15 850 25.1 0.7 33.3 61 -5.9 21.3
00:30 1021 30.15 850 25.1 0.7 33.3 61 -6 21.2
00:35 1021 30.15 850 25.1 0.7 33.2 61 -6 21.2
00:40 1021 30.15 850 25.1 0.7 33.2 62 -5.7 21.7
00:45 1021 30.15 850 25.1 0.6 33 64 -5.6 22
00:50 1021 30.15 850 25.1 0.5 32.9 64 -5.6 22
00:55 1021 30.15 850 25.1 0.5 32.8 64 -5.5 22
01:00 1021 30.15 850 25.1 0.4 32.7 65 -5.4 22.3
01:05 1021 30.15 850 25.1 0.3 32.6 66 -5.3 22.4
01:10 1021 30.15 850 25.1 0.3 32.5 67 -5.1 22.8
01:15 1021 30.15 850 25.1 0.3 32.5 67 -5.1 22.9
01:20 1021 30.15 850 25.1 0.2 32.4 68 -5 23
01:25 1021 30.15 850 25.1 0.1 32.2 69 -5 23
01:30 1021 30.15 850 25.1 0.1 32.2 69 -5 23.1
01:35 1021 30.15 850 25.1 0.1 32.1 69 -4.9 23.2
01:40 1021 30.15 850 25.1 0 32 70 -4.8 23.3
01:45 1021 30.15 850 25.1 0 32.1 70 -4.7 23.5
01:50 1021 30.15 850 25.1 -0.1 31.8 71 -4.7 23.6
01:55 1021 30.15 850 25.1 -0.2 31.6 72 -4.7 23.5
02:00 1021 30.15 850 25.1 -0.2 31.6 72 -4.7 23.6
02:05 1021 30.15 850 25.1 -0.2 31.7 71 -4.8 23.4
02:10 1021 30.15 850 25.1 -0.2 31.7 72 -4.6 23.6
02:15 1020 30.12 850 25.1 -0.3 31.5 72 -4.7 23.5
02:20 1021 30.15 850 25.1 -0.3 31.5 73 -4.6 23.7
02:25 1020 30.12 850 25.1 -0.3 31.5 73 -4.5 23.8
02:30 1020 30.12 850 25.1 -0.3 31.5 73 -4.6 23.8
02:35 1020 30.12 850 25.1 -0.3 31.5 73 -4.6 23.8
02:40 1020 30.12 849 25.07 -0.3 31.5 73 -4.6 23.8
02:45 1020 30.12 849 25.07 -0.3 31.5 73 -4.6 23.8
02:50 1020 30.12 849 25.07 -0.3 31.5 73 -4.6 23.7
02:55 1020 30.12 849 25.07 -0.3 31.4 73 -4.6 23.7
03:00 1020 30.12 849 25.07 -0.4 31.3 73 -4.6 23.8
03:05 1020 30.12 849 25.07 -0.4 31.3 74 -4.6 23.8
03:10 1020 30.12 849 25.07 -0.4 31.3 73 -4.6 23.7
03:15 1020 30.12 849 25.07 -0.4 31.3 73 -4.6 23.7
03:20 1020 30.12 849 25.07 -0.4 31.3 74 -4.6 23.8
03:25 1020 30.12 849 25.07 -0.4 31.2 74 -4.6 23.8
03:30 1020 30.12 849 25.07 -0.5 31.2 74 -4.6 23.8
03:35 1020 30.12 849 25.07 -0.5 31.2 74 -4.6 23.7
03:40 1020 30.12 849 25.07 -0.5 31.2 74 -4.6 23.7
03:45 1020 30.12 849 25.07 -0.5 31 74 -4.6 23.7
03:50 1020 30.12 849 25.07 -0.5 31.1 73 -4.7 23.5
03:55 1020 30.12 849 25.07 -0.5 31.1 74 -4.6 23.7
04:00 1020 30.12 849 25.07 -0.6 30.9 74 -4.6 23.7
04:05 1020 30.12 849 25.07 -0.6 30.9 74 -4.6 23.7
04:10 1020 30.12 850 25.1 -0.6 30.9 74 -4.6 23.7
04:15 1020 30.12 850 25.1 -0.7 30.8 75 -4.6 23.6
04:20 1020 30.12 850 25.1 -0.8 30.6 75 -4.7 23.5
04:25 1020 30.12 850 25.1 -0.8 30.6 75 -4.7 23.5
04:30 1020 30.12 850 25.1 -0.8 30.5 74 -4.8 23.3
04:35 1020 30.12 850 25.1 -0.8 30.5 74 -4.9 23.2
04:40 1021 30.15 850 25.1 -0.8 30.5 74 -4.8 23.3
04:45 1021 30.15 850 25.1 -0.9 30.4 74 -5 23.1
04:50 1021 30.15 850 25.1 -1 30.3 75 -4.9 23.2
04:55 1020 30.12 850 25.1 -1 30.2 75 -4.9 23.1
05:00 1020 30.12 850 25.1 -1 30.3 74 -5 23
05:05 1020 30.12 850 25.1 -0.9 30.3 74 -5 22.9
05:10 1020 30.12 850 25.1 -0.9 30.3 74 -5 23
05:15 1020 30.12 850 25.1 -0.9 30.3 74 -5 22.9
05:20 1020 30.12 850 25.1 -1 30.2 74 -5.1 22.9
05:25 1020 30.12 849 25.07 -1 30.2 74 -5 23
05:30 1020 30.12 849 25.07 -1 30.1 75 -4.9 23.1
05:35 1020 30.12 849 25.07 -1.1 30 75 -5 23.1
05:40 1020 30.12 849 25.07 -1.1 30 75 -5 23.1
05:45 1020 30.12 849 25.07 -1.1 30 75 -5 22.9
05:50 1020 30.12 849 25.07 -1 30.2 75 -5 23
05:55 1020 30.12 849 25.07 -1.2 29.9 75 -5 23
06:00 1020 30.12 849 25.07 -1.2 29.8 75 -5.1 22.8
06:05 1020 30.12 849 25.07 -1.2 29.9 74 -5.2 22.7
06:10 1020 30.12 849 25.07 -1 30.1 74 -5.2 22.7
06:15 1020 30.12 849 25.07 -1 30.2 74 -5.1 22.9
06:20 1020 30.12 849 25.07 -0.9 30.4 73 -5.1 22.8
06:25 1020 30.12 849 25.07 -0.9 30.4 74 -5 23
06:30 1020 30.12 849 25.07 -0.9 30.3 74 -5.1 22.9
06:35 1020 30.12 849 25.07 -1 30.3 74 -5.1 22.9
06:40 1020 30.12 849 25.07 -1 30.2 74 -5.1 22.8
06:45 1020 30.12 849 25.07 -1 30.2 74 -5 23
06:50 1020 30.12 849 25.07 -1 30.1 74 -5.1 22.9
06:55 1020 30.12 849 25.07 -1 30.2 74 -5 22.9
07:00 1020 30.12 849 25.07 -1 30.2 74 -5 23
07:05 1020 30.12 849 25.07 -0.9 30.3 74 -5 23.1
07:10 1020 30.12 849 25.07 -0.9 30.3 75 -4.9 23.2
07:15 1020 30.12 849 25.07 -0.9 30.4 74 -4.9 23.1
07:20 1020 30.12 849 25.07 -0.8 30.6 74 -4.9 23.2
07:25 1020 30.12 849 25.07 -0.6 30.9 73 -4.8 23.4
07:30 1020 30.12 849 25.07 -0.6 31 73 -4.8 23.3
07:35 1020 30.12 849 25.07 -0.5 31.1 73 -4.7 23.5
07:40 1020 30.12 849 25.07 -0.5 31.1 73 -4.8 23.4
07:45 1020 30.12 849 25.07 -0.5 31.2 73 -4.7 23.5
07:50 1020 30.12 849 25.07 -0.3 31.4 72 -4.7 23.5
07:55 1020 30.12 849 25.07 -0.2 31.6 72 -4.8 23.4
08:00 1020 30.12 849 25.07 -0.1 31.8 71 -4.8 23.4
08:05 1020 30.12 849 25.07 0.1 32.2 70 -4.7 23.6
08:10 1020 30.12 849 25.07 0.2 32.4 69 -4.7 23.5
08:15 1020 30.12 849 25.07 0.4 32.6 69 -4.6 23.7
08:20 1020 30.12 849 25.07 0.4 32.8 68 -4.8 23.3
08:25 1020 30.12 849 25.07 0.5 32.9 68 -4.7 23.5
08:30 1020 30.12 849 25.07 0.5 32.8 69 -4.6 23.7
08:35 1020 30.12 849 25.07 0.8 33.4 67 -4.7 23.6
08:40 1020 30.12 849 25.07 1 33.8 67 -4.5 23.9
08:45 1020 30.12 849 25.07 1.5 34.7 64 -4.6 23.8
08:50 1020 30.12 849 25.07 1.6 34.9 63 -4.6 23.7
08:55 1020 30.12 849 25.07 1.8 35.2 64 -4.4 24.1
09:00 1020 30.12 849 25.07 2 35.5 63 -4.4 24
09:05 1020 30.12 849 25.07 1.9 35.3 65 -4 24.7
09:10 1020 30.12 849 25.07 1.7 35 66 -4.1 24.6
09:15 1020 30.12 849 25.07 1.7 35 65 -4.1 24.6
09:20 1020 30.12 849 25.07 1.7 35.1 66 -4 24.8
09:25 1020 30.12 849 25.07 1.7 35.1 65 -4.2 24.5
09:30 1020 30.12 849 25.07 1.8 35.2 65 -4 24.8
09:35 1020 30.12 849 25.07 2 35.6 65 -3.9 25
09:40 1020 30.12 849 25.07 2.2 35.9 65 -3.8 25.2
09:45 1020 30.12 849 25.07 2.3 36.1 64 -3.8 25.2
09:50 1020 30.12 849 25.07 2.6 36.7 63 -3.7 25.4
09:55 1020 30.12 849 25.07 2.7 36.9 63 -3.6 25.6
10:00 1020 30.12 849 25.07 2.8 37 62 -3.7 25.4
10:05 1020 30.12 849 25.07 2.9 37.1 63 -3.5 25.7
10:10 1020 30.12 849 25.07 2.9 37.3 63 -3.4 25.8
10:15 1020 30.12 849 25.07 3 37.5 63 -3.4 25.9
10:20 1020 30.12 849 25.07 3.1 37.7 63 -3.3 26.1
10:25 1020 30.12 849 25.07 3.3 37.9 61 -3.5 25.7
10:30 1020 30.12 849 25.07 3.6 38.5 60 -3.5 25.6
10:35 1020 30.12 849 25.07 3.8 38.8 60 -3.2 26.3
10:40 1020 30.12 849 25.07 4 39.1 60 -3 26.5
10:45 1020 30.12 849 25.07 4 39.1 60 -3.1 26.3
10:50 1020 30.12 849 25.07 4.1 39.4 58 -3.4 25.9
10:55 1020 30.12 849 25.07 4.6 40.2 57 -3.3 26.1
11:00 1020 30.12 849 25.07 4.5 40.1 57 -3.2 26.3
11:05 1020 30.12 849 25.07 4.6 40.3 57 -3.1 26.4
11:10 1020 30.12 849 25.07 4.6 40.3 57 -3.2 26.2
11:15 1020 30.12 849 25.07 4.8 40.6 57 -3 26.7
11:20 1020 30.12 849 25.07 5.1 41.2 55 -3.1 26.3
11:25 1020 30.12 849 25.07 5.4 41.7 58 -2.2 28
11:30 1020 30.12 849 25.07 5.3 41.5 57 -2.7 27.2
11:35 1020 30.12 849 25.07 5.3 41.6 56 -2.6 27.3
11:40 1019 30.09 849 25.07 5.3 41.6 57 -2.5 27.5
11:45 1019 30.09 849 25.07 5.1 41.2 58 -2.5 27.5
11:50 1019 30.09 849 25.07 5.1 41.1 58 -2.5 27.6
11:55 1019 30.09 849 25.07 6.1 42.9 54 -2.6 27.3
12:00 1019 30.09 849 25.07 6.6 43.8 54 -2.1 28.2
12:05 1019 30.09 848 25.04 6.3 43.4 53 -2.5 27.5
12:10 1019 30.09 848 25.04 6.7 44.1 52 -2.6 27.4
12:15 1019 30.09 848 25.04 6.7 44 52 -2.4 27.7
12:20 1019 30.09 848 25.04 7.1 44.8 50 -2.6 27.4
12:25 1019 30.09 848 25.04 7.4 45.3 49 -2.5 27.5
12:30 1019 30.09 848 25.04 7.4 45.2 50 -2.4 27.7
12:35 1019 30.09 848 25.04 7.5 45.4 49 -2.5 27.4
12:40 1019 30.09 848 25.04 7.7 45.8 50 -2.1 28.1
12:45 1019 30.09 848 25.04 7.8 46 49 -2.2 28.1
12:50 1019 30.09 848 25.04 7.7 45.9 50 -2 28.3
12:55 1019 30.09 848 25.04 7.7 45.9 49 -2.2 28
13:00 1019 30.09 848 25.04 8.7 47.7 46 -2.3 27.8
13:05 1019 30.09 848 25.04 9.5 49 46 -1.4 29.4
13:10 1018 30.06 848 25.04 9.1 48.4 46 -1.8 28.7
13:15 1018 30.06 848 25.04 9.5 49 46 -1.4 29.5
13:20 1018 30.06 848 25.04 9.9 49.8 45 -1.3 29.6
13:25 1018 30.06 848 25.04 9.9 49.8 44 -1.7 28.9
13:30 1018 30.06 848 25.04 9.7 49.4 47 -1.1 30.1
13:35 1018 30.06 847 25.01 9 48.3 49 -1.1 29.9
13:40 1018 30.06 847 25.01 8.8 47.8 49 -1.2 29.8
13:45 1018 30.06 847 25.01 8.8 47.8 49 -1.3 29.6
13:50 1018 30.06 847 25.01 9.9 49.7 46 -1.2 29.9
13:55 1018 30.06 847 25.01 9.2 48.5 49 -0.8 30.6
14:00 1018 30.06 847 25.01 9.5 49 44 -2 28.3
14:05 1018 30.06 847 25.01 9.5 49 45 -1.9 28.5
14:10 1018 30.06 847 25.01 9.2 48.6 45 -2 28.4
14:15 1018 30.06 847 25.01 9.7 49.5 43 -2.2 28
14:20 1018 30.06 847 25.01 10.7 51.3 41 -1.8 28.7
14:25 1018 30.06 847 25.01 10.8 51.5 42 -1.4 29.6
14:30 1018 30.06 847 25.01 11.1 52 40 -1.8 28.8
14:35 1018 30.06 847 25.01 11.3 52.4 40 -1.9 28.7
14:40 1018 30.06 847 25.01 11.1 52.1 42 -1.2 29.9
14:45 1018 30.06 847 25.01 10.3 50.6 41 -2.2 28.1
14:50 1018 30.06 847 25.01 10.5 50.9 41 -2 28.4
14:55 1018 30.06 847 25.01 11 51.8 41 -1.8 28.7
15:00 1018 30.06 847 25.01 11.4 52.5 39 -2.1 28.2
15:05 1017 30.03 847 25.01 11.3 52.3 40 -1.6 29
15:10 1017 30.03 847 25.01 11.2 52.2 37 -2.8 27
15:15 1017 30.03 847 25.01 11.2 52.1 37 -2.9 26.8
15:20 1017 30.03 847 25.01 11.2 52.1 40 -1.8 28.7
15:25 1017 30.03 846 24.98 10.5 50.9 41 -2.1 28.3
15:30 1017 30.03 846 24.98 10.4 50.7 38 -3.3 26.1
15:35 1017 30.03 846 24.98 10.9 51.6 40 -2.2 28.1
15:40 1017 30.03 846 24.98 11.2 52.1 37 -2.9 26.8
15:45 1017 30.03 846 24.98 11.1 51.9 39 -2.3 27.8
15:50 1017 30.03 846 24.98 10.8 51.4 39 -2.6 27.4
15:55 1017 30.03 846 24.98 11.2 52.1 36 -3.2 26.3
16:00 1017 30.03 846 24.98 11.5 52.7 36 -3.1 26.3
16:05 1017 30.03 846 24.98 12 53.6 34 -3.2 26.2
16:10 1017 30.03 846 24.98 12.7 54.8 33 -3 26.6
16:15 1017 30.03 846 24.98 12 53.5 35 -3.1 26.4
16:20 1017 30.03 846 24.98 11.5 52.6 35 -3.3 26.1
16:25 1017 30.03 846 24.98 11.1 51.9 35 -3.8 25.2
16:30 1017 30.03 846 24.98 11 51.7 37 -2.9 26.7
16:35 1016 30 846 24.98 11.1 52 35 -3.7 25.4
16:40 1016 30 846 24.98 11.9 53.4 34 -3.4 25.8
16:45 1016 30 846 24.98 11.7 53 36 -2.8 27
16:50 1016 30 846 24.98 11.5 52.6 35 -3.3 26.1
16:55 1016 30 846 24.98 11.4 52.6 36 -3.2 26.2
17:00 1016 30 845 24.95 12 53.5 34 -3.4 25.9
17:05 1016 30 845 24.95 12.1 53.8 34 -3.1 26.3
17:10 1016 30 845 24.95 12.1 53.7 34 -3.2 26.2
17:15 1016 30 845 24.95 12.4 54.2 35 -2.4 27.6
17:20 1016 30 845 24.95 12 53.6 38 -1.7 28.9
17:25 1016 30 845 24.95 11.9 53.3 38 -1.9 28.5
17:30 1016 30 845 24.95 12 53.7 38 -2 28.5
17:35 1016 30 845 24.95 12.4 54.3 38 -1.5 29.4
17:40 1016 30 845 24.95 12.2 53.9 37 -1.9 28.6
17:45 1016 30 845 24.95 12.2 54 38 -1.5 29.2
17:50 1016 30 845 24.95 11.8 53.2 40 -1.2 29.8
17:55 1016 30 845 24.95 11.6 52.8 43 -0.7 30.8
18:00 1016 30 845 24.95 11.8 53.2 42 -0.8 30.5
18:05 1016 30 845 24.95 12 53.6 41 -0.6 30.8
18:10 1016 30 845 24.95 11.7 53.1 42 -0.6 30.9
18:15 1016 30 845 24.95 11.8 53.2 43 -0.5 31.1
18:20 1016 30 845 24.95 11.9 53.4 42 -0.5 31.1
18:25 1016 30 845 24.95 11.5 52.8 43 -0.6 31
18:30 1016 30 845 24.95 11.3 52.4 44 -0.5 31
18:35 1016 30 845 24.95 11.5 52.7 43 -0.5 31.1
18:40 1016 30 845 24.95 11.5 52.7 43 -0.6 30.9
18:45 1016 30 845 24.95 11.3 52.4 45 -0.3 31.5
18:50 1016 30 845 24.95 11.1 51.9 48 0.4 32.7
18:55 1016 30 845 24.95 10.9 51.6 48 0.4 32.7
19:00 1016 30 845 24.95 10.7 51.2 49 0.4 32.7
19:05 1016 30 845 24.95 10.6 51 48 -0 32
19:10 1016 30 845 24.95 10.6 51 48 0 32
19:15 1016 30 845 24.95 10.6 51 49 0.3 32.6
19:20 1015 29.97 845 24.95 10.4 50.8 49 0.2 32.3
19:25 1015 29.97 845 24.95 10.2 50.3 50 0.2 32.3
19:30 1015 29.97 844 24.92 10.1 50.1 51 0.5 32.9
19:35 1015 29.97 844 24.92 10 49.9 52 0.7 33.3
19:40 1015 29.97 844 24.92 9.9 49.8 53 0.9 33.6
19:45 1015 29.97 844 24.92 9.7 49.5 54 0.9 33.7
19:50 1015 29.97 844 24.92 9.6 49.3 54 0.9 33.7
19:55 1015 29.97 844 24.92 9.5 49 56 1.2 34.1
20:00 1015 29.97 844 24.92 9.2 48.6 57 1.1 33.9
20:05 1015 29.97 845 24.95 9.2 48.5 57 1.1 34
20:10 1015 29.97 845 24.95 9.1 48.4 58 1.3 34.4
20:15 1015 29.97 845 24.95 8.9 48.1 59 1.4 34.5
20:20 1015 29.97 845 24.95 8.8 47.8 59 1.3 34.4
20:25 1016 30 845 24.95 8.8 47.8 60 1.5 34.6
20:30 1016 30 845 24.95 8.7 47.6 61 1.5 34.8
20:35 1016 30 845 24.95 8.5 47.2 61 1.5 34.7
20:40 1016 30 845 24.95 8.3 46.9 61 1.2 34.2
20:45 1016 30 845 24.95 8.2 46.8 61 1.3 34.3
20:50 1016 30 845 24.95 7.9 46.2 63 1.2 34.2
20:55 1016 30 845 24.95 7.7 45.8 63 1.1 34
21:00 1015 29.97 845 24.95 7.7 45.8 63 1.1 34
21:05 1016 30 845 24.95 7.4 45.3 63 0.9 33.6
21:10 1016 30 845 24.95 7.2 45 63 0.8 33.4
21:15 1016 30 845 24.95 7 44.5 64 0.7 33.3
21:20 1016 30 845 24.95 6.6 43.9 66 0.7 33.3
21:25 1016 30 845 24.95 6.4 43.6 67 0.7 33.3
21:30 1016 30 845 24.95 6.5 43.6 66 0.6 33.1
21:35 1016 30 845 24.95 6.6 43.9 65 0.5 32.9
21:40 1016 30 845 24.95 6.6 43.8 64 0.3 32.6
21:45 1016 30 845 24.95 6.6 43.9 64 0.2 32.4
21:50 1016 30 845 24.95 6.6 44 63 0.1 32.2
21:55 1016 30 845 24.95 6.6 43.8 63 0 32.1
22:00 1016 30 845 24.95 6.5 43.7 64 0.1 32.2
22:05 1016 30 845 24.95 6.1 43.1 66 0.2 32.4
22:10 1016 30 845 24.95 5.9 42.6 66 -0 32
22:15 1016 30 845 24.95 6 42.7 66 0 32
22:20 1016 30 845 24.95 6 42.8 66 0.1 32.1
22:25 1016 30 845 24.95 6 42.7 66 0 32
22:30 1016 30 845 24.95 5.9 42.7 67 0.2 32.4
22:35 1016 30 845 24.95 6 42.7 67 0.3 32.5
22:40 1016 30 845 24.95 6 42.8 67 0.3 32.5
22:45 1016 30 845 24.95 6.1 42.9 64 -0.1 31.8
22:50 1016 30 845 24.95 6.1 43 65 0 32
22:55 1016 30 845 24.95 6 42.8 66 0.1 32.2
23:00 1016 30 845 24.95 5.7 42.2 66 -0.1 31.8
23:05 1016 30 845 24.95 5.7 42.2 67 -0 32
23:10 1016 30 845 24.95 6 42.8 63 -0.5 31.1
23:15 1016 30 846 24.98 6.3 43.3 62 -0.5 31
23:20 1016 30 846 24.98 6.5 43.7 59 -0.9 30.4
23:25 1016 30 846 24.98 6.7 44.1 58 -0.9 30.3
23:30 1016 30 846 24.98 6.9 44.5 56 -1.2 29.8
23:35 1016 30 846 24.98 7.1 44.7 55 -1.3 29.7
23:40 1016 30 846 24.98 7 44.7 59 -0.5 31.1
23:45 1016 30 846 24.98 6.8 44.3 61 -0.2 31.7
23:50 1016 30 846 24.98 7.1 44.8 59 -0.3 31.4
23:55 1016 30 846 24.98 7 44.6 62 0.2 32.3
24:00 1017 30.03 846 24.98 6.9 44.4 61 -0.1 31.9